Time;durP1;ratioP1;P1;durP2;ratioP2;P2;SDS_P1;SDS_P2;PMS_P1;PMS_P2;Temp;Humidity;BMP_temperature;BMP_pressure;BME280_temperature;BME280_humidity;BME280_pressure;Samples;Min_cycle;Max_cycle;Signal;HPM_P1;HPM_P2
2023/07/03 00:01:08;;;;;;;4.15;1.90;;;24.40;81.60;;;;;;5098409;27;20216;-82
2023/07/03 00:03:38;;;;;;;1.25;0.60;;;24.30;81.70;;;;;;5107101;27;20193;-82
2023/07/03 00:06:07;;;;;;;0.32;0.32;;;24.30;81.40;;;;;;5103545;27;20218;-83
2023/07/03 00:08:36;;;;;;;2.03;1.10;;;24.30;81.50;;;;;;5104788;27;20204;-84
2023/07/03 00:11:08;;;;;;;0.80;0.75;;;24.30;81.40;;;;;;5100400;27;20251;-83
2023/07/03 00:13:36;;;;;;;2.42;0.80;;;24.30;82.00;;;;;;5100616;27;20195;-82
2023/07/03 00:16:05;;;;;;;3.17;1.20;;;24.20;82.40;;;;;;5100789;27;20188;-82
2023/07/03 00:18:34;;;;;;;1.15;0.98;;;24.20;82.70;;;;;;5096334;28;20320;-82
2023/07/03 00:21:02;;;;;;;1.63;0.93;;;24.10;83.00;;;;;;5093386;27;20197;-83
2023/07/03 00:23:31;;;;;;;0.73;0.63;;;24.10;83.50;;;;;;5103895;27;20209;-82
2023/07/03 00:26:00;;;;;;;0.52;0.52;;;24.10;83.20;;;;;;5091695;28;20227;-83
2023/07/03 00:28:30;;;;;;;0.73;0.73;;;24.10;82.80;;;;;;5098806;28;20519;-83
2023/07/03 00:30:58;;;;;;;0.98;0.85;;;24.10;83.30;;;;;;5096498;28;20189;-82
2023/07/03 00:33:26;;;;;;;0.77;0.70;;;24.00;83.40;;;;;;5092276;27;20288;-82
2023/07/03 00:35:55;;;;;;;1.15;0.82;;;24.00;83.40;;;;;;5099022;27;20213;-83
2023/07/03 00:38:23;;;;;;;1.40;1.05;;;24.00;83.10;;;;;;5100649;27;20192;-83
2023/07/03 00:40:52;;;;;;;1.40;1.25;;;24.00;83.10;;;;;;5098104;27;20193;-83
2023/07/03 00:43:21;;;;;;;0.47;0.47;;;24.00;83.30;;;;;;5097501;27;20196;-81
2023/07/03 00:45:51;;;;;;;0.70;0.70;;;24.00;84.10;;;;;;5098533;27;20196;-81
2023/07/03 00:48:19;;;;;;;1.08;0.85;;;24.00;83.90;;;;;;5102940;27;20188;-81
2023/07/03 00:50:48;;;;;;;1.42;0.77;;;23.90;83.50;;;;;;5106582;27;20213;-82
2023/07/03 00:53:16;;;;;;;0.45;0.30;;;23.90;83.30;;;;;;5096516;27;20197;-81
2023/07/03 00:55:44;;;;;;;1.50;1.15;;;23.90;83.40;;;;;;5104694;27;20185;-80
2023/07/03 00:58:13;;;;;;;1.65;0.90;;;23.90;83.90;;;;;;5094952;27;20189;-82
2023/07/03 01:00:49;;;;;;;0.85;0.85;;;23.90;84.30;;;;;;5102332;28;20224;-82
2023/07/03 01:03:24;;;;;;;2.13;1.58;;;23.80;84.20;;;;;;5104296;27;20548;-80
2023/07/03 01:05:55;;;;;;;1.10;0.80;;;23.80;84.20;;;;;;5102752;27;20279;-82
2023/07/03 01:08:25;;;;;;;7.68;1.45;;;23.80;84.50;;;;;;5100828;27;20196;-83
2023/07/03 01:10:56;;;;;;;0.70;0.68;;;23.80;84.50;;;;;;5108985;27;21040;-84
2023/07/03 01:13:29;;;;;;;0.60;0.60;;;23.70;84.30;;;;;;5093792;27;20197;-83
2023/07/03 01:15:58;;;;;;;1.55;0.80;;;23.70;84.20;;;;;;5111801;27;20207;-81
2023/07/03 01:18:29;;;;;;;0.70;0.70;;;23.70;84.90;;;;;;5100290;27;20651;-83
2023/07/03 01:21:04;;;;;;;0.38;0.30;;;23.70;84.80;;;;;;5091615;27;20565;-81
2023/07/03 01:23:37;;;;;;;0.30;0.30;;;23.70;84.70;;;;;;5107473;27;20200;-83
2023/07/03 01:26:09;;;;;;;1.00;0.75;;;23.60;84.60;;;;;;5103812;27;20189;-81
2023/07/03 01:28:38;;;;;;;0.70;0.70;;;23.60;84.50;;;;;;5093809;27;20189;-83
2023/07/03 01:31:07;;;;;;;0.65;0.55;;;23.60;84.40;;;;;;5098296;28;20225;-83
2023/07/03 01:33:40;;;;;;;0.93;0.85;;;23.60;84.80;;;;;;5104732;27;20193;-82
2023/07/03 01:36:11;;;;;;;0.40;0.40;;;23.60;85.10;;;;;;5101169;27;20197;-82
2023/07/03 01:38:42;;;;;;;1.17;0.90;;;23.60;84.90;;;;;;5101688;27;20188;-81
2023/07/03 01:41:14;;;;;;;0.43;0.40;;;23.60;84.60;;;;;;5109981;27;20231;-81
2023/07/03 01:43:43;;;;;;;0.77;0.52;;;23.60;84.50;;;;;;5099461;27;20664;-84
2023/07/03 01:46:12;;;;;;;1.38;0.75;;;23.60;84.50;;;;;;5099561;28;20211;-81
2023/07/03 01:48:40;;;;;;;1.25;0.93;;;23.60;84.30;;;;;;5099863;27;20555;-80
2023/07/03 01:51:14;;;;;;;1.55;0.98;;;23.60;84.30;;;;;;5112485;27;20597;-80
2023/07/03 01:53:49;;;;;;;0.55;0.55;;;23.60;85.40;;;;;;5105344;27;20197;-86
2023/07/03 01:56:23;;;;;;;0.77;0.73;;;23.60;85.90;;;;;;5096480;27;20185;-84
2023/07/03 01:58:56;;;;;;;0.52;0.52;;;23.50;86.20;;;;;;5112324;27;20201;-82
2023/07/03 02:01:41;;;;;;;0.65;0.55;;;23.50;86.50;;;;;;5102678;27;20201;-81
2023/07/03 02:04:17;;;;;;;1.63;1.15;;;23.40;86.90;;;;;;5097874;28;20234;-81
2023/07/03 02:06:47;;;;;;;2.50;1.13;;;23.40;87.00;;;;;;5088459;28;20262;-82
2023/07/03 02:09:16;;;;;;;1.02;0.90;;;23.40;87.20;;;;;;5107359;28;20673;-82
2023/07/03 02:11:48;;;;;;;1.17;0.93;;;23.30;87.60;;;;;;5105894;28;20194;-83
2023/07/03 02:14:17;;;;;;;0.95;0.50;;;23.30;88.10;;;;;;5097557;28;20239;-82
2023/07/03 02:16:47;;;;;;;1.67;0.88;;;23.20;88.00;;;;;;5092993;28;20201;-82
2023/07/03 02:19:16;;;;;;;1.05;1.05;;;23.20;88.20;;;;;;5110857;27;20189;-83
2023/07/03 02:21:45;;;;;;;2.75;1.17;;;23.20;88.50;;;;;;5106608;28;20198;-82
2023/07/03 02:24:14;;;;;;;0.50;0.50;;;23.10;89.20;;;;;;5115692;27;20200;-81
2023/07/03 02:26:43;;;;;;;3.70;1.80;;;23.10;89.40;;;;;;5093463;28;21519;-79
2023/07/03 02:29:13;;;;;;;0.73;0.52;;;23.10;89.40;;;;;;5099987;28;20716;-81
2023/07/03 02:31:41;;;;;;;4.22;1.70;;;23.10;89.70;;;;;;5093462;28;20731;-82
2023/07/03 02:34:10;;;;;;;1.02;0.95;;;23.00;89.70;;;;;;5107376;27;20197;-82
2023/07/03 02:36:39;;;;;;;2.03;1.85;;;23.00;90.00;;;;;;5109255;27;20201;-80
2023/07/03 02:39:09;;;;;;;1.50;1.40;;;23.00;90.30;;;;;;5101015;28;20193;-82
2023/07/03 02:41:37;;;;;;;2.28;1.48;;;22.90;90.30;;;;;;5095000;27;20192;-82
2023/07/03 02:44:06;;;;;;;1.17;1.00;;;22.80;90.50;;;;;;5096311;27;20194;-81
2023/07/03 02:46:35;;;;;;;3.17;2.33;;;22.90;90.40;;;;;;5100267;27;20197;-81
2023/07/03 02:49:04;;;;;;;2.92;0.88;;;22.90;90.20;;;;;;5102698;27;20197;-82
2023/07/03 02:51:32;;;;;;;2.00;1.65;;;22.80;90.50;;;;;;5094108;28;20684;-81
2023/07/03 02:54:01;;;;;;;0.30;0.30;;;22.80;90.60;;;;;;5099464;28;20189;-80
2023/07/03 02:56:29;;;;;;;1.63;1.45;;;22.80;90.60;;;;;;5093281;28;20202;-81
2023/07/03 02:58:57;;;;;;;0.68;0.68;;;22.70;90.40;;;;;;5091717;28;20190;-82
2023/07/03 03:01:26;;;;;;;1.45;1.10;;;22.80;90.30;;;;;;5095566;28;20198;-81
2023/07/03 03:03:58;;;;;;;2.97;1.67;;;22.80;90.50;;;;;;5102300;27;20197;-82
2023/07/03 03:06:27;;;;;;;1.23;1.13;;;22.70;90.60;;;;;;5092855;27;20228;-82
2023/07/03 03:08:55;;;;;;;1.17;0.95;;;22.70;90.60;;;;;;5103319;27;20206;-82
2023/07/03 03:11:24;;;;;;;1.02;1.02;;;22.70;90.50;;;;;;5098715;27;20225;-84
2023/07/03 03:13:52;;;;;;;0.80;0.80;;;22.70;90.60;;;;;;5093603;27;20205;-82
2023/07/03 03:16:20;;;;;;;0.93;0.90;;;22.70;90.70;;;;;;5101698;27;20212;-79
2023/07/03 03:18:50;;;;;;;1.67;1.20;;;22.70;90.90;;;;;;5104384;27;20227;-82
2023/07/03 03:21:20;;;;;;;1.08;0.75;;;22.70;91.00;;;;;;5098558;27;20234;-83
2023/07/03 03:23:48;;;;;;;0.77;0.77;;;22.70;91.20;;;;;;5092807;28;20193;-82
2023/07/03 03:26:17;;;;;;;1.58;1.38;;;22.70;91.40;;;;;;5098404;28;20194;-81
2023/07/03 03:28:45;;;;;;;2.10;1.60;;;22.60;91.50;;;;;;5107462;27;20193;-84
2023/07/03 03:31:14;;;;;;;0.52;0.35;;;22.60;91.50;;;;;;5107335;27;20743;-83
2023/07/03 03:33:42;;;;;;;0.65;0.63;;;22.70;91.40;;;;;;5119090;27;20188;-81
2023/07/03 03:36:10;;;;;;;1.60;1.33;;;22.70;91.30;;;;;;5094827;27;20208;-82
2023/07/03 03:38:40;;;;;;;1.20;0.93;;;22.60;91.40;;;;;;5092870;27;20198;-81
2023/07/03 03:41:09;;;;;;;1.27;0.88;;;22.70;91.50;;;;;;5099721;27;20193;-83
2023/07/03 03:43:37;;;;;;;2.13;1.73;;;22.60;91.50;;;;;;5104463;27;20190;-84
2023/07/03 03:46:06;;;;;;;2.60;1.25;;;22.70;91.40;;;;;;5100268;27;20257;-84
2023/07/03 03:48:35;;;;;;;1.67;1.50;;;22.60;91.30;;;;;;5105108;27;20719;-83
2023/07/03 03:51:03;;;;;;;1.60;1.27;;;22.70;91.20;;;;;;5099028;27;20213;-83
2023/07/03 03:53:32;;;;;;;1.38;0.80;;;22.70;91.30;;;;;;5096336;27;20598;-82
2023/07/03 03:56:01;;;;;;;3.75;1.15;;;22.70;91.30;;;;;;5096359;27;20222;-82
2023/07/03 03:58:30;;;;;;;1.08;0.90;;;22.70;91.40;;;;;;5103060;27;20653;-82
2023/07/03 04:00:58;;;;;;;1.17;1.05;;;22.70;91.40;;;;;;5100197;27;20196;-81
2023/07/03 04:03:26;;;;;;;2.28;1.45;;;22.70;91.40;;;;;;5092679;27;21802;-80
2023/07/03 04:05:55;;;;;;;1.50;1.30;;;22.70;91.50;;;;;;5099315;27;20246;-81
2023/07/03 04:08:24;;;;;;;1.17;1.08;;;22.70;91.60;;;;;;5104001;27;20194;-81
2023/07/03 04:10:52;;;;;;;1.65;1.35;;;22.70;91.60;;;;;;5096527;27;20584;-81
2023/07/03 04:13:22;;;;;;;1.48;1.10;;;22.70;91.50;;;;;;5092279;28;20205;-83
2023/07/03 04:16:00;;;;;;;3.03;1.63;;;22.70;91.60;;;;;;5091369;27;20203;-81
2023/07/03 04:18:30;;;;;;;1.80;1.02;;;22.70;91.50;;;;;;5090995;28;20193;-82
2023/07/03 04:20:59;;;;;;;2.45;1.23;;;22.70;91.50;;;;;;5100418;27;20211;-81
2023/07/03 04:23:29;;;;;;;2.28;1.80;;;22.70;91.40;;;;;;5100663;27;20642;-81
2023/07/03 04:25:58;;;;;;;1.05;0.82;;;22.70;91.40;;;;;;5095824;27;20646;-79
2023/07/03 04:28:27;;;;;;;4.47;1.73;;;22.70;91.50;;;;;;5099400;28;20197;-79
2023/07/03 04:30:56;;;;;;;1.67;1.05;;;22.70;91.40;;;;;;5097485;28;20224;-81
2023/07/03 04:33:24;;;;;;;1.13;0.88;;;22.70;91.50;;;;;;5092777;27;20214;-81
2023/07/03 04:35:52;;;;;;;2.90;1.92;;;22.80;91.50;;;;;;5098969;27;20237;-80
2023/07/03 04:38:23;;;;;;;2.95;1.20;;;22.80;91.50;;;;;;5098089;28;20208;-81
2023/07/03 04:40:53;;;;;;;0.80;0.80;;;22.80;91.40;;;;;;5099834;28;20193;-81
2023/07/03 04:43:22;;;;;;;1.35;1.05;;;22.80;91.40;;;;;;5098803;27;20253;-80
2023/07/03 04:45:55;;;;;;;0.77;0.77;;;22.80;91.30;;;;;;5091912;28;20190;-81
2023/07/03 04:48:24;;;;;;;3.47;2.00;;;22.80;91.40;;;;;;5094735;27;20185;-80
2023/07/03 04:50:53;;;;;;;1.25;1.15;;;22.90;91.40;;;;;;5097241;28;20513;-82
2023/07/03 04:53:23;;;;;;;3.72;1.10;;;23.00;91.40;;;;;;5096031;27;21092;-81
2023/07/03 04:55:51;;;;;;;2.50;1.23;;;23.00;91.30;;;;;;5098059;27;20621;-82
2023/07/03 04:58:21;;;;;;;2.40;2.00;;;23.00;91.50;;;;;;5092950;27;20643;-84
2023/07/03 05:00:51;;;;;;;2.70;1.10;;;23.00;91.50;;;;;;5094975;27;20200;-80
2023/07/03 05:03:19;;;;;;;1.17;0.98;;;23.10;91.40;;;;;;5092973;27;20543;-83
2023/07/03 05:05:48;;;;;;;1.42;0.85;;;23.20;91.40;;;;;;5097133;27;20642;-81
2023/07/03 05:08:16;;;;;;;3.25;1.00;;;23.20;91.40;;;;;;5101158;27;20189;-84
2023/07/03 05:10:45;;;;;;;1.58;1.42;;;23.20;91.40;;;;;;5100531;27;20189;-82
2023/07/03 05:13:13;;;;;;;1.52;1.08;;;23.30;91.40;;;;;;5100798;28;20217;-81
2023/07/03 05:15:42;;;;;;;0.95;0.80;;;23.30;91.30;;;;;;5098851;27;20200;-83
2023/07/03 05:18:11;;;;;;;1.33;1.23;;;23.50;91.40;;;;;;5103480;27;20227;-83
2023/07/03 05:20:42;;;;;;;1.55;1.33;;;23.50;91.30;;;;;;5096657;28;20189;-82
2023/07/03 05:23:13;;;;;;;2.45;1.65;;;23.60;91.30;;;;;;5093746;27;20189;-81
2023/07/03 05:25:42;;;;;;;3.28;0.80;;;23.60;91.30;;;;;;5098081;27;20189;-81
2023/07/03 05:28:10;;;;;;;1.52;0.98;;;23.70;91.50;;;;;;5089887;28;20288;-82
2023/07/03 05:30:38;;;;;;;0.60;0.52;;;23.70;91.30;;;;;;5099699;28;20549;-82
2023/07/03 05:33:07;;;;;;;0.93;0.60;;;23.80;91.30;;;;;;5092436;28;20248;-81
2023/07/03 05:35:36;;;;;;;1.52;1.23;;;23.80;91.30;;;;;;5091030;28;21819;-81
2023/07/03 05:38:17;;;;;;;0.80;0.80;;;23.90;91.20;;;;;;5103807;28;20207;-79
2023/07/03 05:40:49;;;;;;;0.68;0.68;;;24.00;91.20;;;;;;5106503;28;20194;-82
2023/07/03 05:43:17;;;;;;;0.88;0.70;;;24.10;91.10;;;;;;5100407;28;20193;-82
2023/07/03 05:45:48;;;;;;;2.80;0.93;;;24.10;91.30;;;;;;5101663;27;20193;-80
2023/07/03 05:48:17;;;;;;;0.32;0.32;;;24.20;90.90;;;;;;5108735;27;20195;-80
2023/07/03 05:50:47;;;;;;;0.75;0.73;;;24.30;90.80;;;;;;5095405;28;20494;-80
2023/07/03 05:53:15;;;;;;;1.38;0.77;;;24.40;90.70;;;;;;5097051;27;20217;-80
2023/07/03 05:55:44;;;;;;;0.75;0.73;;;24.50;90.70;;;;;;5088541;28;20186;-80
2023/07/03 05:58:12;;;;;;;1.40;1.02;;;24.60;90.60;;;;;;5088724;28;20237;-81
2023/07/03 06:00:41;;;;;;;2.38;1.05;;;24.70;90.40;;;;;;5094817;28;20193;-80
2023/07/03 06:03:11;;;;;;;1.05;0.88;;;24.70;90.20;;;;;;5098171;28;20223;-82
2023/07/03 06:05:39;;;;;;;1.25;1.15;;;24.80;90.20;;;;;;5098398;28;20194;-81
2023/07/03 06:08:10;;;;;;;0.57;0.55;;;24.90;90.10;;;;;;5104001;28;20230;-80
2023/07/03 06:10:39;;;;;;;0.95;0.82;;;25.00;90.00;;;;;;5097682;28;20643;-81
2023/07/03 06:13:07;;;;;;;2.22;1.20;;;25.10;89.40;;;;;;5088853;28;20225;-82
2023/07/03 06:15:35;;;;;;;0.95;0.75;;;25.20;88.80;;;;;;5090513;28;20223;-81
2023/07/03 06:18:05;;;;;;;0.73;0.70;;;25.20;88.70;;;;;;5093366;28;20207;-80
2023/07/03 06:20:34;;;;;;;0.55;0.47;;;25.30;88.60;;;;;;5108618;28;20228;-80
2023/07/03 06:23:02;;;;;;;1.00;0.85;;;25.40;88.30;;;;;;5090225;28;20190;-82
2023/07/03 06:25:32;;;;;;;0.68;0.43;;;25.40;88.20;;;;;;5093125;28;20197;-80
2023/07/03 06:28:01;;;;;;;0.93;0.70;;;25.60;88.20;;;;;;5099285;28;20201;-81
2023/07/03 06:30:29;;;;;;;2.65;1.80;;;25.60;87.20;;;;;;5110954;28;20197;-81
2023/07/03 06:32:57;;;;;;;3.53;1.35;;;25.70;86.60;;;;;;5095395;28;20217;-83
2023/07/03 06:35:26;;;;;;;0.60;0.60;;;25.80;87.20;;;;;;5092673;28;20196;-81
2023/07/03 06:37:56;;;;;;;0.73;0.73;;;25.90;86.10;;;;;;5093458;28;20192;-82
2023/07/03 06:40:24;;;;;;;0.38;0.38;;;26.00;85.90;;;;;;5097134;28;20201;-81
2023/07/03 06:42:54;;;;;;;0.40;0.40;;;26.00;85.80;;;;;;5093919;28;20219;-80
2023/07/03 06:45:22;;;;;;;0.50;0.50;;;26.10;85.80;;;;;;5096135;28;20193;-81
2023/07/03 06:47:51;;;;;;;3.17;0.80;;;26.20;85.20;;;;;;5093032;28;20569;-82
2023/07/03 06:50:20;;;;;;;1.33;0.88;;;26.30;85.10;;;;;;5090198;28;20611;-80
2023/07/03 06:52:48;;;;;;;1.27;0.65;;;26.40;84.80;;;;;;5093743;28;20225;-85
2023/07/03 06:55:16;;;;;;;1.15;0.77;;;26.50;84.70;;;;;;5091192;28;20190;-81
2023/07/03 06:57:45;;;;;;;0.40;0.40;;;26.50;84.30;;;;;;5098507;28;20196;-81
2023/07/03 07:00:16;;;;;;;2.75;1.35;;;26.60;83.50;;;;;;5099743;28;20690;-81
2023/07/03 07:02:44;;;;;;;0.50;0.50;;;26.60;83.60;;;;;;5091127;28;20198;-81
2023/07/03 07:05:12;;;;;;;1.42;1.20;;;26.70;83.20;;;;;;5105110;28;20185;-82
2023/07/03 07:07:41;;;;;;;1.42;0.68;;;26.80;83.10;;;;;;5091737;28;20257;-81
2023/07/03 07:10:10;;;;;;;1.65;1.33;;;26.90;83.20;;;;;;5094239;28;20197;-82
2023/07/03 07:12:38;;;;;;;1.23;1.13;;;27.00;82.90;;;;;;5094959;28;20225;-80
2023/07/03 07:15:08;;;;;;;1.67;0.70;;;27.10;82.70;;;;;;5101778;28;20649;-82
2023/07/03 07:17:37;;;;;;;0.63;0.60;;;27.20;82.50;;;;;;5101885;28;20665;-82
2023/07/03 07:20:19;;;;;;;0.50;0.50;;;27.20;82.30;;;;;;5092351;28;20665;-81
2023/07/03 07:22:49;;;;;;;1.25;1.15;;;27.30;82.00;;;;;;5099413;28;20188;-83
2023/07/03 07:25:17;;;;;;;1.00;0.85;;;27.40;81.60;;;;;;5101705;28;20194;-82
2023/07/03 07:27:46;;;;;;;1.42;0.75;;;27.50;81.20;;;;;;5099453;28;20198;-82
2023/07/03 07:30:14;;;;;;;1.55;1.45;;;27.50;80.40;;;;;;5094178;28;20328;-81
2023/07/03 07:32:47;;;;;;;2.75;1.20;;;27.60;80.30;;;;;;5107563;27;20227;-83
2023/07/03 07:35:15;;;;;;;1.45;1.13;;;27.60;80.30;;;;;;5099519;28;20190;-83
2023/07/03 07:37:43;;;;;;;0.50;0.50;;;27.70;80.50;;;;;;5106365;27;20196;-83
2023/07/03 07:40:13;;;;;;;1.60;1.15;;;27.80;80.30;;;;;;5100924;27;20186;-85
2023/07/03 07:42:41;;;;;;;2.58;0.80;;;27.90;79.80;;;;;;5100530;28;20213;-85
2023/07/03 07:45:10;;;;;;;2.90;0.73;;;27.90;78.60;;;;;;5105042;27;20200;-84
2023/07/03 07:47:39;;;;;;;0.47;0.47;;;28.00;78.20;;;;;;5093552;27;20192;-84
2023/07/03 07:50:10;;;;;;;0.40;0.40;;;28.10;78.30;;;;;;5100025;28;20710;-85
2023/07/03 07:52:38;;;;;;;3.25;1.35;;;28.10;78.40;;;;;;5101489;28;20190;-85
2023/07/03 07:55:07;;;;;;;1.27;0.93;;;28.20;77.30;;;;;;5102967;27;20613;-86
2023/07/03 07:57:36;;;;;;;1.30;1.20;;;28.20;77.40;;;;;;5099672;27;20209;-84
2023/07/03 08:00:05;;;;;;;0.55;0.55;;;28.30;76.30;;;;;;5098398;27;20704;-87
2023/07/03 08:02:33;;;;;;;1.13;0.75;;;28.40;76.60;;;;;;5099161;27;20201;-85
2023/07/03 08:05:02;;;;;;;0.93;0.77;;;28.40;76.60;;;;;;5097518;28;20213;-86
2023/07/03 08:07:32;;;;;;;0.70;0.70;;;28.50;76.30;;;;;;5100339;27;20260;-84
2023/07/03 08:10:00;;;;;;;0.55;0.45;;;28.50;75.80;;;;;;5095621;28;20185;-87
2023/07/03 08:12:28;;;;;;;0.95;0.57;;;28.60;75.90;;;;;;5096347;27;20216;-84
2023/07/03 08:14:57;;;;;;;0.60;0.60;;;28.60;75.40;;;;;;5099119;27;20189;-82
2023/07/03 08:17:25;;;;;;;0.43;0.43;;;28.70;75.40;;;;;;5099666;28;20251;-82
2023/07/03 08:19:53;;;;;;;4.22;0.82;;;28.70;74.30;;;;;;5103630;27;20684;-80
2023/07/03 08:22:22;;;;;;;5.07;0.90;;;28.80;74.80;;;;;;5099717;28;20186;-81
2023/07/03 08:24:51;;;;;;;2.25;1.20;;;28.90;74.90;;;;;;5098147;27;20885;-84
2023/07/03 08:27:20;;;;;;;1.48;0.95;;;28.90;74.50;;;;;;5094835;28;20193;-82
2023/07/03 08:29:48;;;;;;;1.27;0.98;;;28.90;74.20;;;;;;5104805;28;20681;-81
2023/07/03 08:32:16;;;;;;;1.90;1.00;;;29.00;73.40;;;;;;5101410;28;20536;-81
2023/07/03 08:34:45;;;;;;;0.60;0.60;;;29.00;73.50;;;;;;5107105;27;20237;-80
2023/07/03 08:37:16;;;;;;;0.52;0.52;;;29.10;73.60;;;;;;5098557;28;20193;-80
2023/07/03 08:39:44;;;;;;;1.65;0.70;;;29.20;73.60;;;;;;5100804;28;20676;-80
2023/07/03 08:42:18;;;;;;;1.00;0.70;;;29.20;73.80;;;;;;5102865;28;20197;-80
2023/07/03 08:44:46;;;;;;;1.02;0.90;;;29.30;73.60;;;;;;5113102;28;20196;-80
2023/07/03 08:47:19;;;;;;;0.43;0.40;;;29.30;73.40;;;;;;5102278;28;20638;-81
2023/07/03 08:49:50;;;;;;;1.55;0.98;;;29.40;71.70;;;;;;5105851;28;20272;-82
2023/07/03 08:52:25;;;;;;;0.60;0.60;;;29.40;71.00;;;;;;5099824;28;20189;-80
2023/07/03 08:54:54;;;;;;;4.97;1.88;;;29.50;71.50;;;;;;5112930;27;20685;-80
2023/07/03 08:57:25;;;;;;;1.50;1.17;;;29.50;71.20;;;;;;5097726;27;20200;-81
2023/07/03 08:59:54;;;;;;;0.90;0.63;;;29.50;70.90;;;;;;5111343;28;20192;-82
2023/07/03 09:02:33;;;;;;;1.60;0.95;;;29.50;71.00;;;;;;5108918;28;20186;-82
2023/07/03 09:05:17;;;;;;;0.57;0.45;;;29.50;70.50;;;;;;5101525;28;20193;-81
2023/07/03 09:07:49;;;;;;;2.85;1.65;;;29.60;70.50;;;;;;5101739;27;20591;-82
2023/07/03 09:10:22;;;;;;;0.80;0.63;;;29.70;71.00;;;;;;5110596;27;20237;-81
2023/07/03 09:12:57;;;;;;;0.60;0.60;;;29.70;70.10;;;;;;5105596;28;20189;-79
2023/07/03 09:15:31;;;;;;;1.58;0.63;;;29.80;69.90;;;;;;5114242;27;20575;-82
2023/07/03 09:18:03;;;;;;;2.78;1.00;;;29.90;69.70;;;;;;5100537;27;20193;-84
2023/07/03 09:20:32;;;;;;;0.50;0.40;;;29.90;69.30;;;;;;5108205;27;20245;-82
2023/07/03 09:23:09;;;;;;;0.80;0.80;;;30.00;69.80;;;;;;5104865;27;20209;-83
2023/07/03 09:25:44;;;;;;;0.93;0.88;;;30.10;69.40;;;;;;5106035;28;20189;-84
2023/07/03 09:28:14;;;;;;;0.93;0.82;;;30.10;69.70;;;;;;5098244;27;20188;-83
2023/07/03 09:30:42;;;;;;;0.50;0.50;;;30.20;69.70;;;;;;5100124;27;20276;-84
2023/07/03 09:33:11;;;;;;;0.80;0.80;;;30.20;69.10;;;;;;5105522;28;20193;-84
2023/07/03 09:35:41;;;;;;;1.88;0.88;;;30.30;69.20;;;;;;5099372;27;20305;-85
2023/07/03 09:38:16;;;;;;;1.15;0.75;;;30.30;68.80;;;;;;5099158;27;20189;-84
2023/07/03 09:40:48;;;;;;;0.90;0.60;;;30.40;69.00;;;;;;5105153;28;20189;-84
2023/07/03 09:43:20;;;;;;;2.40;0.93;;;30.40;68.80;;;;;;5098848;27;20684;-84
2023/07/03 09:45:50;;;;;;;0.93;0.93;;;30.40;68.70;;;;;;5097963;28;20597;-84
2023/07/03 09:48:24;;;;;;;0.65;0.65;;;30.40;68.80;;;;;;5095168;27;20201;-84
2023/07/03 09:50:53;;;;;;;1.42;1.05;;;30.50;68.60;;;;;;5097108;27;20200;-83
2023/07/03 09:53:39;;;;;;;0.60;0.60;;;30.60;68.60;;;;;;5090763;28;20700;-84
2023/07/03 09:56:13;;;;;;;1.30;0.63;;;30.60;68.10;;;;;;5091964;28;20189;-83
2023/07/03 09:58:48;;;;;;;0.77;0.75;;;30.60;67.70;;;;;;5102994;28;20188;-84
2023/07/03 10:01:18;;;;;;;0.63;0.60;;;30.60;68.00;;;;;;5091460;28;20234;-83
2023/07/03 10:04:00;;;;;;;1.70;1.20;;;30.60;67.40;;;;;;5104650;27;20192;-83
2023/07/03 10:06:29;;;;;;;0.55;0.55;;;30.50;67.00;;;;;;5101777;28;20293;-82
2023/07/03 10:09:01;;;;;;;1.48;1.10;;;30.50;66.60;;;;;;5090889;28;20539;-84
2023/07/03 10:11:41;;;;;;;0.68;0.68;;;30.60;66.60;;;;;;5096306;28;20653;-84
2023/07/03 10:14:18;;;;;;;0.52;0.47;;;30.60;65.60;;;;;;5094687;28;20254;-85
2023/07/03 10:16:48;;;;;;;1.15;1.02;;;30.70;66.20;;;;;;5100202;28;20196;-85
2023/07/03 10:19:18;;;;;;;0.50;0.50;;;30.80;66.40;;;;;;5100102;28;20188;-84
2023/07/03 10:21:47;;;;;;;1.23;0.70;;;30.80;66.60;;;;;;5099051;28;20193;-85
2023/07/03 10:24:16;;;;;;;0.63;0.63;;;30.90;65.80;;;;;;5107726;27;20550;-87
2023/07/03 10:26:50;;;;;;;0.80;0.80;;;30.90;64.70;;;;;;5103866;28;20195;-85
2023/07/03 10:29:25;;;;;;;0.90;0.85;;;31.00;64.10;;;;;;5110332;28;20185;-86
2023/07/03 10:31:59;;;;;;;1.42;0.70;;;30.90;65.20;;;;;;5103923;28;20217;-85
2023/07/03 10:34:37;;;;;;;0.70;0.65;;;30.90;64.40;;;;;;5103657;28;20216;-85
2023/07/03 10:37:07;;;;;;;0.75;0.75;;;30.90;64.30;;;;;;5097889;28;20194;-85
2023/07/03 10:39:42;;;;;;;0.60;0.55;;;30.90;64.70;;;;;;5097470;28;20190;-84
2023/07/03 10:42:19;;;;;;;1.00;0.77;;;30.90;64.80;;;;;;5096529;28;21183;-85
2023/07/03 10:44:53;;;;;;;0.70;0.57;;;30.90;64.80;;;;;;5101086;28;20200;-85
2023/07/03 10:47:28;;;;;;;1.23;1.13;;;30.90;64.70;;;;;;5100513;28;20193;-85
2023/07/03 10:49:57;;;;;;;0.73;0.65;;;30.90;64.50;;;;;;5109082;28;20212;-85
2023/07/03 10:52:33;;;;;;;0.40;0.35;;;30.80;64.20;;;;;;5104961;27;20221;-84
2023/07/03 10:55:11;;;;;;;0.77;0.77;;;30.90;64.70;;;;;;5105002;27;20208;-83
2023/07/03 10:57:48;;;;;;;0.40;0.40;;;30.80;64.80;;;;;;5092067;27;20193;-82
2023/07/03 11:00:25;;;;;;;0.40;0.40;;;30.90;65.00;;;;;;5107105;27;20207;-84
2023/07/03 11:03:02;;;;;;;0.55;0.55;;;30.90;65.00;;;;;;5104291;27;20193;-84
2023/07/03 11:05:37;;;;;;;0.73;0.73;;;31.00;64.50;;;;;;5104992;28;20194;-84
2023/07/03 11:08:13;;;;;;;0.80;0.80;;;31.10;64.50;;;;;;5100221;27;20224;-84
2023/07/03 11:10:48;;;;;;;0.88;0.88;;;31.30;63.60;;;;;;5103880;27;20201;-83
2023/07/03 11:13:19;;;;;;;0.63;0.63;;;31.30;63.30;;;;;;5104915;27;20192;-84
2023/07/03 11:15:59;;;;;;;0.40;0.40;;;31.40;62.90;;;;;;5100921;27;22181;-83
2023/07/03 11:18:48;;;;;;;0.50;0.50;;;31.50;63.00;;;;;;5098476;28;20601;-85
2023/07/03 11:21:32;;;;;;;0.88;0.70;;;31.70;62.90;;;;;;5103429;27;20190;-83
2023/07/03 11:24:12;;;;;;;1.83;1.50;;;31.80;63.10;;;;;;5099127;27;20190;-83
2023/07/03 11:26:42;;;;;;;0.93;0.82;;;31.90;62.40;;;;;;5097422;27;20186;-84
2023/07/03 11:29:14;;;;;;;1.17;0.40;;;32.00;61.80;;;;;;5102925;27;20193;-84
2023/07/03 11:31:45;;;;;;;1.38;0.95;;;32.00;61.70;;;;;;5090267;28;20205;-84
2023/07/03 11:34:17;;;;;;;0.77;0.77;;;32.00;60.80;;;;;;5100217;27;20235;-84
2023/07/03 11:36:50;;;;;;;0.70;0.50;;;32.10;60.70;;;;;;5099758;27;20654;-83
2023/07/03 11:39:33;;;;;;;0.85;0.52;;;32.10;61.00;;;;;;5100724;28;20627;-84
2023/07/03 11:42:13;;;;;;;0.82;0.80;;;32.10;60.80;;;;;;5095880;27;20186;-85
2023/07/03 11:44:47;;;;;;;0.60;0.60;;;32.20;61.40;;;;;;5098609;28;20284;-84
2023/07/03 11:47:19;;;;;;;1.50;0.75;;;32.20;61.30;;;;;;5100168;27;20196;-84
2023/07/03 11:49:52;;;;;;;1.27;1.10;;;32.30;61.60;;;;;;5104117;28;20228;-84
2023/07/03 11:52:27;;;;;;;0.70;0.70;;;32.50;61.40;;;;;;5099293;28;20195;-84
2023/07/03 11:55:01;;;;;;;0.40;0.40;;;32.50;61.40;;;;;;5099105;27;20209;-83
2023/07/03 11:57:32;;;;;;;1.25;1.10;;;32.60;61.10;;;;;;5098582;28;20205;-84
2023/07/03 12:00:16;;;;;;;0.68;0.52;;;32.60;60.60;;;;;;5109883;27;20887;-84
2023/07/03 12:02:56;;;;;;;1.58;0.77;;;32.60;60.60;;;;;;5101511;28;20192;-85
2023/07/03 12:05:51;;;;;;;0.57;0.57;;;32.60;60.60;;;;;;5096266;28;20612;-84
2023/07/03 12:08:48;;;;;;;1.02;0.93;;;32.50;60.50;;;;;;5107506;28;20193;-84
2023/07/03 12:11:16;;;;;;;0.80;0.57;;;32.40;60.40;;;;;;5064164;28;20196;-84
2023/07/03 12:13:51;;;;;;;0.75;0.75;;;32.40;60.20;;;;;;5102507;27;20578;-84
2023/07/03 12:16:25;;;;;;;1.48;0.65;;;32.30;59.90;;;;;;5096144;28;20681;-84
2023/07/03 12:19:07;;;;;;;0.65;0.60;;;32.20;59.30;;;;;;5106705;27;20220;-83
2023/07/03 12:21:42;;;;;;;0.43;0.43;;;32.20;59.10;;;;;;5091055;28;22138;-85
2023/07/03 12:24:19;;;;;;;0.80;0.70;;;32.10;59.60;;;;;;5092178;28;20212;-84
2023/07/03 12:27:00;;;;;;;1.77;0.63;;;32.10;59.80;;;;;;5097446;28;20192;-83
2023/07/03 12:29:29;;;;;;;0.60;0.60;;;32.00;59.90;;;;;;5117172;27;20199;-83
2023/07/03 12:32:05;;;;;;;1.52;1.20;;;32.00;60.20;;;;;;5107846;27;20224;-86
2023/07/03 12:34:37;;;;;;;0.68;0.55;;;31.90;60.20;;;;;;5110735;27;20216;-84
2023/07/03 12:37:09;;;;;;;1.13;0.60;;;31.90;61.10;;;;;;5103900;28;20262;-85
2023/07/03 12:39:38;;;;;;;1.27;0.65;;;31.90;60.40;;;;;;5100322;28;20583;-83
2023/07/03 12:42:11;;;;;;;2.20;0.82;;;32.00;60.60;;;;;;5096361;28;20277;-84
2023/07/03 12:44:40;;;;;;;0.98;0.63;;;32.10;61.00;;;;;;5105186;28;20287;-85
2023/07/03 12:47:11;;;;;;;1.40;1.02;;;32.10;60.60;;;;;;5105228;28;20205;-85
2023/07/03 12:50:06;;;;;;;0.57;0.57;;;32.10;60.40;;;;;;5093155;28;20435;-84
2023/07/03 12:52:35;;;;;;;0.43;0.40;;;32.20;61.00;;;;;;5081852;27;20212;-83
2023/07/03 12:55:04;;;;;;;0.85;0.75;;;32.30;61.10;;;;;;5103666;27;20250;-83
2023/07/03 12:57:44;;;;;;;0.63;0.60;;;32.40;60.90;;;;;;5097612;28;20193;-84
2023/07/03 13:00:24;;;;;;;0.65;0.65;;;32.40;60.30;;;;;;5101082;28;20193;-84
2023/07/03 13:02:57;;;;;;;0.63;0.63;;;32.40;60.30;;;;;;5106374;27;20200;-87
2023/07/03 13:05:31;;;;;;;1.75;0.88;;;32.50;59.90;;;;;;5102771;28;20285;-85
2023/07/03 13:08:00;;;;;;;0.45;0.45;;;32.60;59.90;;;;;;5098248;28;20233;-85